Time;durP1;ratioP1;P1;durP2;ratioP2;P2;SDS_P1;SDS_P2;PMS_P1;PMS_P2;Temp;Humidity;BMP_temperature;BMP_pressure;BME280_temperature;BME280_humidity;BME280_pressure;Samples;Min_cycle;Max_cycle;Signal;HPM_P1;HPM_P2
2022/04/04 00:01:01;;;;;;;;;;;3.60;99.90;;;;;;5094510;28;19909;-39
2022/04/04 00:03:27;;;;;;;;;;;3.50;99.90;;;;;;5093447;28;19916;-39
2022/04/04 00:05:52;;;;;;;;;;;3.50;99.90;;;;;;5094574;28;19977;-39
2022/04/04 00:08:18;;;;;;;;;;;3.50;99.90;;;;;;5094343;28;19916;-39
2022/04/04 00:10:43;;;;;;;;;;;3.50;99.90;;;;;;5093501;28;19915;-39
2022/04/04 00:13:09;;;;;;;;;;;3.40;99.90;;;;;;5094397;28;20010;-40
2022/04/04 00:15:34;;;;;;;;;;;3.40;99.90;;;;;;5094376;28;19948;-40
2022/04/04 00:18:07;;;;;;;;;;;3.40;99.90;;;;;;5093542;28;19914;-39
2022/04/04 00:20:32;;;;;;;;;;;3.40;99.90;;;;;;5093957;28;19954;-39
2022/04/04 00:22:58;;;;;;;;;;;3.40;99.90;;;;;;5094051;28;19951;-39
2022/04/04 00:25:23;;;;;;;;;;;3.40;99.90;;;;;;5093360;28;19966;-39
2022/04/04 00:27:50;;;;;;;;;;;3.40;99.90;;;;;;5094130;28;19916;-39
2022/04/04 00:30:16;;;;;;;;;;;3.40;99.90;;;;;;5093726;28;19938;-39
2022/04/04 00:32:41;;;;;;;;;;;3.40;99.90;;;;;;5093472;28;20343;-39
2022/04/04 00:35:07;;;;;;;;;;;3.50;99.90;;;;;;5093650;28;19927;-39
2022/04/04 00:37:34;;;;;;;;;;;3.40;99.90;;;;;;5093917;28;19912;-40
2022/04/04 00:39:59;;;;;;;;;;;3.50;99.90;;;;;;5093361;28;19916;-39
2022/04/04 00:42:25;;;;;;;;;;;3.40;99.90;;;;;;5093809;28;20374;-41
2022/04/04 00:44:51;;;;;;;;;;;3.40;99.90;;;;;;5093100;28;20363;-39
2022/04/04 00:47:17;;;;;;;;;;;3.50;99.90;;;;;;5093478;28;20297;-39
2022/04/04 00:49:42;;;;;;;;;;;3.50;99.90;;;;;;5091846;28;19916;-39
2022/04/04 00:52:08;;;;;;;;;;;3.50;99.90;;;;;;5092148;28;19919;-40
2022/04/04 00:54:33;;;;;;;;;;;3.50;99.90;;;;;;5093590;28;19955;-40
2022/04/04 00:57:02;;;;;;;;;;;3.50;99.90;;;;;;5093584;28;19909;-40
2022/04/04 00:59:28;;;;;;;;;;;3.50;99.90;;;;;;5092887;28;19908;-39
2022/04/04 01:01:53;;;;;;;;;;;3.50;99.90;;;;;;5093468;28;19908;-39
2022/04/04 01:04:19;;;;;;;;;;;3.50;99.90;;;;;;5093385;28;20002;-39
2022/04/04 01:06:44;;;;;;;;;;;3.50;99.90;;;;;;5092539;28;19908;-40
2022/04/04 01:09:16;;;;;;;;;;;3.50;99.90;;;;;;5091968;28;19920;-39
2022/04/04 01:12:00;;;;;;;;;;;3.50;99.90;;;;;;5093395;28;19908;-39
2022/04/04 01:14:25;;;;;;;;;;;3.60;99.90;;;;;;5092071;28;19919;-39
2022/04/04 01:16:51;;;;;;;;;;;3.60;99.90;;;;;;5093228;28;19908;-39
2022/04/04 01:19:16;;;;;;;;;;;3.60;99.90;;;;;;5093088;28;19958;-40
2022/04/04 01:21:42;;;;;;;;;;;3.70;99.90;;;;;;5092381;28;19908;-40
2022/04/04 01:24:15;;;;;;;;;;;3.70;99.90;;;;;;5092964;28;19908;-39
2022/04/04 01:26:47;;;;;;;;;;;3.70;99.90;;;;;;5093084;28;20264;-40
2022/04/04 01:29:13;;;;;;;;;;;3.70;99.90;;;;;;5092225;28;19961;-40
2022/04/04 01:31:38;;;;;;;;;;;3.80;99.90;;;;;;5092965;28;19912;-40
2022/04/04 01:34:04;;;;;;;;;;;3.80;99.90;;;;;;5092122;28;19908;-39
2022/04/04 01:36:29;;;;;;;;;;;3.80;99.90;;;;;;5092723;28;20069;-40
2022/04/04 01:38:54;;;;;;;;;;;3.80;99.90;;;;;;5092697;28;19916;-39
2022/04/04 01:41:20;;;;;;;;;;;3.80;99.90;;;;;;5092139;28;19908;-40
2022/04/04 01:43:45;;;;;;;;;;;3.80;99.90;;;;;;5092945;28;19958;-40
2022/04/04 01:46:29;;;;;;;;;;;3.90;99.90;;;;;;5092987;28;19912;-39
2022/04/04 01:48:58;;;;;;;;;;;3.90;99.90;;;;;;5092052;28;19919;-39
2022/04/04 01:51:25;;;;;;;;;;;3.90;99.90;;;;;;5092722;28;19908;-40
2022/04/04 01:53:51;;;;;;;;;;;3.90;99.90;;;;;;5092808;28;19999;-40
2022/04/04 01:56:17;;;;;;;;;;;3.90;99.90;;;;;;5092073;28;20008;-40
2022/04/04 01:58:43;;;;;;;;;;;3.90;99.90;;;;;;5092377;28;19912;-39
2022/04/04 02:01:10;;;;;;;;;;;3.90;99.90;;;;;;5092550;28;19915;-39
2022/04/04 02:03:36;;;;;;;;;;;3.90;99.90;;;;;;5091992;28;20002;-40
2022/04/04 02:06:02;;;;;;;;;;;3.90;99.90;;;;;;5092704;28;20270;-40
2022/04/04 02:08:28;;;;;;;;;;;3.90;99.90;;;;;;5092521;28;19916;-39
2022/04/04 02:10:54;;;;;;;;;;;3.90;99.90;;;;;;5092015;28;19908;-39
2022/04/04 02:13:19;;;;;;;;;;;3.90;99.90;;;;;;5092582;28;20408;-40
2022/04/04 02:15:45;;;;;;;;;;;3.90;99.90;;;;;;5092519;28;19914;-39
2022/04/04 02:18:10;;;;;;;;;;;4.00;99.90;;;;;;5091652;28;19913;-40
2022/04/04 02:20:36;;;;;;;;;;;4.00;99.90;;;;;;5096036;28;19961;-40
2022/04/04 02:23:02;;;;;;;;;;;4.00;99.90;;;;;;5096523;28;19961;-40
2022/04/04 02:25:28;;;;;;;;;;;4.00;99.90;;;;;;5095178;28;20381;-39
2022/04/04 02:27:54;;;;;;;;;;;4.00;99.90;;;;;;5096088;28;19916;-39
2022/04/04 02:30:19;;;;;;;;;;;4.10;99.90;;;;;;5095556;28;20003;-40
2022/04/04 02:32:45;;;;;;;;;;;4.00;99.90;;;;;;5096364;28;19912;-40
2022/04/04 02:35:10;;;;;;;;;;;4.10;99.90;;;;;;5096089;28;19927;-40
2022/04/04 02:37:36;;;;;;;;;;;4.10;99.90;;;;;;5095570;28;19961;-40
2022/04/04 02:40:02;;;;;;;;;;;4.10;99.90;;;;;;5096178;28;20355;-40
2022/04/04 02:42:27;;;;;;;;;;;4.20;99.90;;;;;;5096027;28;20004;-39
2022/04/04 02:44:54;;;;;;;;;;;4.20;99.90;;;;;;5095136;28;19930;-39
2022/04/04 02:47:19;;;;;;;;;;;4.20;99.90;;;;;;5095537;28;19927;-40
2022/04/04 02:49:45;;;;;;;;;;;4.20;99.90;;;;;;5096197;28;19912;-39
2022/04/04 02:52:11;;;;;;;;;;;4.30;99.90;;;;;;5095071;28;19909;-41
2022/04/04 02:54:36;;;;;;;;;;;4.30;99.90;;;;;;5095888;28;19912;-41
2022/04/04 02:57:02;;;;;;;;;;;4.40;99.90;;;;;;5095839;28;19912;-40
2022/04/04 02:59:27;;;;;;;;;;;4.40;99.90;;;;;;5094949;28;20323;-40
2022/04/04 03:01:53;;;;;;;;;;;4.40;99.90;;;;;;5095837;28;20437;-40
2022/04/04 03:04:18;;;;;;;;;;;4.40;99.90;;;;;;5095711;28;20282;-40
2022/04/04 03:06:44;;;;;;;;;;;4.50;99.90;;;;;;5094961;28;19931;-40
2022/04/04 03:09:09;;;;;;;;;;;4.50;99.90;;;;;;5095055;28;19920;-39
2022/04/04 03:11:35;;;;;;;;;;;4.60;99.90;;;;;;5095619;28;20286;-40
2022/04/04 03:14:00;;;;;;;;;;;4.70;99.90;;;;;;5094664;28;19908;-39
2022/04/04 03:16:26;;;;;;;;;;;4.70;99.90;;;;;;5095449;28;19908;-39
2022/04/04 03:18:54;;;;;;;;;;;4.80;99.90;;;;;;5095573;28;19908;-40
2022/04/04 03:21:22;;;;;;;;;;;4.90;99.90;;;;;;5094601;28;19908;-40
2022/04/04 03:23:48;;;;;;;;;;;5.00;99.90;;;;;;5095606;28;19916;-40
2022/04/04 03:26:13;;;;;;;;;;;5.00;99.90;;;;;;5095332;28;19913;-39
2022/04/04 03:28:39;;;;;;;;;;;5.10;99.90;;;;;;5093902;28;20019;-39
2022/04/04 03:31:05;;;;;;;;;;;5.20;99.90;;;;;;5094280;28;19990;-39
2022/04/04 03:33:31;;;;;;;;;;;5.20;99.90;;;;;;5094448;28;20373;-39
2022/04/04 03:35:58;;;;;;;;;;;5.20;99.90;;;;;;5093663;28;20362;-40
2022/04/04 03:38:24;;;;;;;;;;;5.30;99.90;;;;;;5094188;28;19909;-39
2022/04/04 03:40:49;;;;;;;;;;;5.30;99.90;;;;;;5093554;28;19916;-40
2022/04/04 03:43:15;;;;;;;;;;;5.40;99.90;;;;;;5093975;28;19915;-39
2022/04/04 03:45:40;;;;;;;;;;;5.40;99.90;;;;;;5093958;28;19908;-40
2022/04/04 03:48:06;;;;;;;;;;;5.40;99.90;;;;;;5092752;28;20347;-40
2022/04/04 03:50:31;;;;;;;;;;;5.40;99.90;;;;;;5093753;28;19919;-40
2022/04/04 03:52:57;;;;;;;;;;;5.50;99.90;;;;;;5093896;28;19912;-41
2022/04/04 03:55:24;;;;;;;;;;;5.50;99.90;;;;;;5093118;28;19946;-40
2022/04/04 03:57:51;;;;;;;;;;;5.50;99.90;;;;;;5093721;28;19908;-40
2022/04/04 04:00:17;;;;;;;;;;;5.50;99.90;;;;;;5093765;28;19912;-40
2022/04/04 04:02:42;;;;;;;;;;;5.60;99.90;;;;;;5093033;28;19915;-40
2022/04/04 04:05:08;;;;;;;;;;;5.60;99.90;;;;;;5093796;28;20401;-39
2022/04/04 04:07:34;;;;;;;;;;;5.60;99.90;;;;;;5093308;28;19924;-39
2022/04/04 04:09:59;;;;;;;;;;;5.60;99.90;;;;;;5092770;28;20386;-40
2022/04/04 04:12:25;;;;;;;;;;;5.70;99.90;;;;;;5093775;28;19908;-40
2022/04/04 04:14:51;;;;;;;;;;;5.60;99.90;;;;;;5093521;28;19940;-39
2022/04/04 04:17:24;;;;;;;;;;;5.60;99.90;;;;;;5092480;28;20395;-41
2022/04/04 04:22:34;;;;;;;;;;;5.70;99.90;;;;;;5093455;28;20011;-40
2022/04/04 04:25:00;;;;;;;;;;;5.70;99.90;;;;;;5092412;28;20003;-41
2022/04/04 04:27:26;;;;;;;;;;;5.70;99.90;;;;;;5092990;28;19912;-39
2022/04/04 04:29:51;;;;;;;;;;;5.70;99.90;;;;;;5092357;28;19912;-39
2022/04/04 04:32:17;;;;;;;;;;;5.70;99.90;;;;;;5092929;28;20049;-40
2022/04/04 04:34:46;;;;;;;;;;;5.70;99.90;;;;;;5092884;28;19927;-39
2022/04/04 04:37:12;;;;;;;;;;;5.70;99.90;;;;;;5091679;28;20014;-40
2022/04/04 04:39:38;;;;;;;;;;;5.70;99.90;;;;;;5093059;28;19964;-39
2022/04/04 04:42:04;;;;;;;;;;;5.70;99.90;;;;;;5093099;28;19947;-40
2022/04/04 04:44:29;;;;;;;;;;;5.70;99.90;;;;;;5092059;28;19912;-41
2022/04/04 04:46:54;;;;;;;;;;;5.70;99.90;;;;;;5092852;28;20389;-39
2022/04/04 04:49:20;;;;;;;;;;;5.70;99.90;;;;;;5092623;28;20426;-42
2022/04/04 04:51:46;;;;;;;;;;;5.70;99.90;;;;;;5091958;28;19915;-41
2022/04/04 04:54:11;;;;;;;;;;;5.70;99.90;;;;;;5092599;28;19909;-40
2022/04/04 04:56:37;;;;;;;;;;;5.70;99.90;;;;;;5092389;28;19973;-40
2022/04/04 04:59:03;;;;;;;;;;;5.70;99.90;;;;;;5091826;28;19908;-41
2022/04/04 05:01:28;;;;;;;;;;;5.60;99.90;;;;;;5092567;28;19912;-40
2022/04/04 05:03:54;;;;;;;;;;;5.70;99.90;;;;;;5092488;28;19995;-40
2022/04/04 05:06:19;;;;;;;;;;;5.70;99.90;;;;;;5091668;28;20387;-40
2022/04/04 05:08:45;;;;;;;;;;;5.70;99.90;;;;;;5092315;28;20331;-40
2022/04/04 05:11:10;;;;;;;;;;;5.70;99.90;;;;;;5092391;28;19908;-40
2022/04/04 05:13:36;;;;;;;;;;;5.70;99.90;;;;;;5091612;28;19912;-40
2022/04/04 05:16:04;;;;;;;;;;;5.70;99.90;;;;;;5092026;28;19922;-40
2022/04/04 05:18:30;;;;;;;;;;;5.70;99.90;;;;;;5092363;28;20017;-41
2022/04/04 05:20:55;;;;;;;;;;;5.70;99.90;;;;;;5091746;28;20366;-40
2022/04/04 05:23:21;;;;;;;;;;;5.70;99.90;;;;;;5092296;28;20287;-41
2022/04/04 05:25:46;;;;;;;;;;;5.70;99.90;;;;;;5092122;28;19908;-40
2022/04/04 05:28:12;;;;;;;;;;;5.70;99.90;;;;;;5091257;28;19919;-40
2022/04/04 05:30:37;;;;;;;;;;;5.70;99.90;;;;;;5092156;28;19912;-41
2022/04/04 05:33:03;;;;;;;;;;;5.70;99.90;;;;;;5091361;28;19908;-40
2022/04/04 05:35:28;;;;;;;;;;;5.70;99.90;;;;;;5091669;28;20332;-41
2022/04/04 05:37:54;;;;;;;;;;;5.70;99.90;;;;;;5092021;28;20004;-40
2022/04/04 05:40:20;;;;;;;;;;;5.70;99.90;;;;;;5091143;28;20027;-40
2022/04/04 05:42:46;;;;;;;;;;;5.70;99.90;;;;;;5092036;28;20003;-39
2022/04/04 05:45:12;;;;;;;;;;;5.80;99.90;;;;;;5091939;28;19908;-40
2022/04/04 05:47:37;;;;;;;;;;;5.80;99.90;;;;;;5090313;28;19970;-39
2022/04/04 05:50:03;;;;;;;;;;;5.80;99.90;;;;;;5091877;28;19920;-42
2022/04/04 05:52:29;;;;;;;;;;;5.80;99.90;;;;;;5091800;28;19955;-40
2022/04/04 05:54:54;;;;;;;;;;;5.80;99.90;;;;;;5095371;28;19967;-40
2022/04/04 05:57:21;;;;;;;;;;;5.80;99.90;;;;;;5098445;28;19908;-40
2022/04/04 05:59:46;;;;;;;;;;;5.80;99.90;;;;;;5098701;28;19961;-40
2022/04/04 06:02:13;;;;;;;;;;;5.80;99.90;;;;;;5097628;28;19912;-40
2022/04/04 06:04:38;;;;;;;;;;;5.80;99.90;;;;;;5098470;28;19954;-40
2022/04/04 06:07:03;;;;;;;;;;;5.80;99.90;;;;;;5098416;28;19911;-41
2022/04/04 06:09:29;;;;;;;;;;;5.80;99.90;;;;;;5097693;28;19969;-40
2022/04/04 06:11:54;;;;;;;;;;;5.80;99.90;;;;;;5098111;28;20386;-40
2022/04/04 06:14:20;;;;;;;;;;;5.70;99.90;;;;;;5096954;28;19908;-40
2022/04/04 06:16:45;;;;;;;;;;;5.70;99.90;;;;;;5113949;28;20386;-40
2022/04/04 06:19:11;;;;;;;;;;;5.70;99.90;;;;;;5114422;28;19948;-41
2022/04/04 06:21:36;;;;;;;;;;;5.60;99.90;;;;;;5098247;28;20050;-40
2022/04/04 06:24:02;;;;;;;;;;;5.60;99.90;;;;;;5097883;28;20390;-40
2022/04/04 06:26:30;;;;;;;;;;;5.70;99.90;;;;;;5096901;28;19908;-41
2022/04/04 06:28:56;;;;;;;;;;;5.60;99.90;;;;;;5096780;28;19978;-40
2022/04/04 06:31:21;;;;;;;;;;;5.60;99.90;;;;;;5095778;28;19954;-40
2022/04/04 06:33:47;;;;;;;;;;;5.60;99.90;;;;;;5096888;28;19912;-40
2022/04/04 06:36:12;;;;;;;;;;;5.60;99.90;;;;;;5098473;28;19924;-39
2022/04/04 06:38:38;;;;;;;;;;;5.60;99.90;;;;;;5096209;28;19915;-40
2022/04/04 06:41:04;;;;;;;;;;;5.60;99.90;;;;;;5096764;28;20363;-39
2022/04/04 06:43:31;;;;;;;;;;;5.60;99.90;;;;;;5095298;28;21474;-39
2022/04/04 06:45:57;;;;;;;;;;;5.60;99.90;;;;;;5096705;28;19912;-39
2022/04/04 06:48:23;;;;;;;;;;;5.60;99.90;;;;;;5096339;28;19942;-40
2022/04/04 06:50:49;;;;;;;;;;;5.60;99.90;;;;;;5095444;28;19915;-40
2022/04/04 06:53:15;;;;;;;;;;;5.60;99.90;;;;;;5095493;28;20282;-40
2022/04/04 06:55:42;;;;;;;;;;;5.50;99.90;;;;;;5096880;28;19919;-39
2022/04/04 06:58:07;;;;;;;;;;;5.50;99.90;;;;;;5095616;28;20159;-39
2022/04/04 07:00:33;;;;;;;;;;;5.50;99.90;;;;;;5096580;28;19912;-39
2022/04/04 07:02:58;;;;;;;;;;;5.40;99.90;;;;;;5096876;28;19912;-40
2022/04/04 07:05:24;;;;;;;;;;;5.40;99.90;;;;;;5093774;28;19908;-39
2022/04/04 07:07:49;;;;;;;;;;;5.40;99.90;;;;;;5094717;28;20385;-40
2022/04/04 07:10:15;;;;;;;;;;;5.30;99.90;;;;;;5094720;28;20367;-40
2022/04/04 07:12:41;;;;;;;;;;;5.30;99.90;;;;;;5094371;28;19908;-40
2022/04/04 07:15:08;;;;;;;;;;;5.30;99.90;;;;;;5094808;28;20275;-39
2022/04/04 07:17:33;;;;;;;;;;;5.30;99.90;;;;;;5094921;28;19912;-39
2022/04/04 07:19:58;;;;;;;;;;;5.20;99.90;;;;;;5093897;28;19953;-39
2022/04/04 07:22:25;;;;;;;;;;;5.30;99.90;;;;;;5094573;28;19931;-40
2022/04/04 07:24:50;;;;;;;;;;;5.30;99.90;;;;;;5093950;28;19920;-41
2022/04/04 07:27:16;;;;;;;;;;;5.30;99.90;;;;;;5091472;28;19962;-40
2022/04/04 07:29:42;;;;;;;;;;;5.30;99.90;;;;;;5094513;28;19920;-40
2022/04/04 07:32:09;;;;;;;;;;;5.30;99.90;;;;;;5092480;28;20268;-39
2022/04/04 07:34:35;;;;;;;;;;;5.30;99.90;;;;;;5091873;28;19973;-40
2022/04/04 07:37:01;;;;;;;;;;;5.30;99.90;;;;;;5093084;28;19912;-40
2022/04/04 07:39:26;;;;;;;;;;;5.30;99.90;;;;;;5092660;28;19965;-39
2022/04/04 07:41:51;;;;;;;;;;;5.30;99.90;;;;;;5065606;28;19909;-41
2022/04/04 07:44:17;;;;;;;;;;;5.40;99.90;;;;;;5092450;28;19959;-40
2022/04/04 07:46:42;;;;;;;;;;;5.40;99.90;;;;;;5092103;28;19979;-40
2022/04/04 07:49:08;;;;;;;;;;;5.40;99.90;;;;;;5092254;28;19954;-39
2022/04/04 07:51:33;;;;;;;;;;;5.40;99.90;;;;;;5092619;28;19923;-39
2022/04/04 07:53:59;;;;;;;;;;;5.40;99.90;;;;;;5091950;28;19935;-40
2022/04/04 07:56:24;;;;;;;;;;;5.40;99.90;;;;;;5092374;28;19912;-41
2022/04/04 07:58:50;;;;;;;;;;;5.50;99.90;;;;;;5092499;28;19947;-42
2022/04/04 08:01:15;;;;;;;;;;;5.50;99.90;;;;;;5088696;28;19908;-42
2022/04/04 08:03:40;;;;;;;;;;;5.50;99.90;;;;;;5092438;28;19954;-42
2022/04/04 08:06:06;;;;;;;;;;;5.40;99.90;;;;;;5092359;28;19908;-42
2022/04/04 08:08:31;;;;;;;;;;;5.40;99.90;;;;;;5091348;28;19923;-42
2022/04/04 08:11:01;;;;;;;;;;;5.40;99.90;;;;;;5093200;28;19922;-42
2022/04/04 08:13:26;;;;;;;;;;;5.40;99.90;;;;;;5093723;28;19982;-42
2022/04/04 08:15:53;;;;;;;;;;;5.40;99.90;;;;;;5092149;28;20371;-42
2022/04/04 08:18:18;;;;;;;;;;;5.40;99.90;;;;;;5092060;28;19916;-41
2022/04/04 08:20:43;;;;;;;;;;;5.50;99.90;;;;;;5106847;28;19960;-42
2022/04/04 08:23:09;;;;;;;;;;;5.50;99.90;;;;;;5112663;28;19962;-45
2022/04/04 08:25:35;;;;;;;;;;;5.50;99.90;;;;;;5113938;28;19908;-43
2022/04/04 08:28:01;;;;;;;;;;;5.50;99.90;;;;;;5113421;28;19912;-43
2022/04/04 08:30:26;;;;;;;;;;;5.50;99.90;;;;;;5112707;28;19950;-43
2022/04/04 08:32:52;;;;;;;;;;;5.50;99.90;;;;;;5113702;28;19912;-43
2022/04/04 08:35:18;;;;;;;;;;;5.60;99.90;;;;;;5112760;28;19924;-43
2022/04/04 08:37:45;;;;;;;;;;;5.60;99.90;;;;;;5112951;28;19907;-43
2022/04/04 08:40:12;;;;;;;;;;;5.60;99.90;;;;;;5113002;28;20343;-42
2022/04/04 08:42:38;;;;;;;;;;;5.60;99.90;;;;;;5113535;28;20398;-42
2022/04/04 08:45:04;;;;;;;;;;;5.70;99.90;;;;;;5112658;28;19914;-42
2022/04/04 08:47:31;;;;;;;;;;;5.80;99.90;;;;;;5113020;28;19916;-44
2022/04/04 08:49:56;;;;;;;;;;;5.80;99.90;;;;;;5112766;28;19924;-44
2022/04/04 08:52:22;;;;;;;;;;;5.90;99.90;;;;;;5092121;28;20066;-42
2022/04/04 08:54:48;;;;;;;;;;;5.90;99.90;;;;;;5092778;28;19916;-43
2022/04/04 08:57:14;;;;;;;;;;;5.90;99.90;;;;;;5084795;28;20421;-43
2022/04/04 08:59:40;;;;;;;;;;;5.90;99.90;;;;;;5092026;28;19927;-42
2022/04/04 09:02:05;;;;;;;;;;;5.90;99.90;;;;;;5088163;28;19911;-42
2022/04/04 09:04:33;;;;;;;;;;;5.90;99.90;;;;;;5091046;28;20014;-43
2022/04/04 09:07:04;;;;;;;;;;;5.90;99.90;;;;;;5092152;28;19920;-42
2022/04/04 09:09:43;;;;;;;;;;;6.00;99.90;;;;;;5092605;28;19961;-43
2022/04/04 09:12:13;;;;;;;;;;;5.90;99.90;;;;;;5090915;28;19908;-43
2022/04/04 09:14:49;;;;;;;;;;;6.00;99.90;;;;;;5091975;28;19915;-43
2022/04/04 09:17:16;;;;;;;;;;;6.00;99.90;;;;;;5090875;28;19908;-43
2022/04/04 09:19:41;;;;;;;;;;;5.90;99.90;;;;;;5091049;28;19955;-43
2022/04/04 09:22:08;;;;;;;;;;;5.90;99.90;;;;;;5091259;28;19951;-43
2022/04/04 09:24:43;;;;;;;;;;;6.00;99.90;;;;;;5091506;28;19912;-43
2022/04/04 09:27:21;;;;;;;;;;;6.00;99.90;;;;;;5090802;28;19908;-42
2022/04/04 09:29:48;;;;;;;;;;;5.90;99.90;;;;;;5091153;28;20381;-42
2022/04/04 09:32:15;;;;;;;;;;;6.00;99.90;;;;;;5090757;28;19928;-43
2022/04/04 09:35:04;;;;;;;;;;;6.00;99.90;;;;;;5091592;28;19924;-43
2022/04/04 09:37:30;;;;;;;;;;;5.90;99.90;;;;;;5091352;28;20432;-41
2022/04/04 09:40:07;;;;;;;;;;;6.00;99.90;;;;;;5091196;28;19962;-42
2022/04/04 09:42:33;;;;;;;;;;;5.90;99.90;;;;;;5091399;28;19926;-44
2022/04/04 09:45:04;;;;;;;;;;;6.00;99.90;;;;;;5091617;28;20354;-42
2022/04/04 09:47:48;;;;;;;;;;;6.00;99.90;;;;;;5090534;28;20011;-42
2022/04/04 09:50:29;;;;;;;;;;;6.00;99.90;;;;;;5090951;28;19955;-41
2022/04/04 09:52:57;;;;;;;;;;;6.00;99.90;;;;;;5091591;28;20377;-42
2022/04/04 09:55:36;;;;;;;;;;;6.00;99.90;;;;;;5090366;28;20957;-41
2022/04/04 09:58:03;;;;;;;;;;;5.90;99.90;;;;;;5091601;28;19908;-42
2022/04/04 10:00:28;;;;;;;;;;;6.00;99.90;;;;;;5090295;28;19919;-43
2022/04/04 10:02:55;;;;;;;;;;;6.00;99.90;;;;;;5090887;28;20268;-41
2022/04/04 10:05:21;;;;;;;;;;;6.00;99.90;;;;;;5081376;28;20031;-41
2022/04/04 10:07:47;;;;;;;;;;;6.00;99.90;;;;;;5080673;28;19923;-41
2022/04/04 10:10:13;;;;;;;;;;;6.00;99.90;;;;;;5081759;28;19973;-43
2022/04/04 10:12:39;;;;;;;;;;;6.10;99.90;;;;;;5085387;28;19909;-42
2022/04/04 10:15:07;;;;;;;;;;;6.10;99.90;;;;;;5077055;28;19912;-44
2022/04/04 10:17:33;;;;;;;;;;;6.10;99.90;;;;;;5087637;28;20445;-44
2022/04/04 10:19:59;;;;;;;;;;;6.10;99.90;;;;;;5086414;28;20003;-45
2022/04/04 10:22:25;;;;;;;;;;;6.10;99.90;;;;;;5087686;28;19915;-44
2022/04/04 10:24:51;;;;;;;;;;;6.10;99.90;;;;;;5088971;28;19912;-45
2022/04/04 10:27:20;;;;;;;;;;;6.10;99.90;;;;;;5089791;28;20363;-43
2022/04/04 10:29:47;;;;;;;;;;;6.10;99.90;;;;;;5089774;28;19916;-43
2022/04/04 10:32:23;;;;;;;;;;;6.10;99.90;;;;;;5089869;28;19919;-43
2022/04/04 10:34:48;;;;;;;;;;;6.20;99.90;;;;;;5090652;28;19923;-45
2022/04/04 10:37:14;;;;;;;;;;;6.10;99.90;;;;;;5089151;28;19919;-44
2022/04/04 10:39:39;;;;;;;;;;;6.10;99.90;;;;;;5108769;28;19951;-44
2022/04/04 10:42:23;;;;;;;;;;;6.20;99.90;;;;;;5115668;28;19993;-44
2022/04/04 10:44:49;;;;;;;;;;;6.20;99.90;;;;;;5114981;28;19915;-44
2022/04/04 10:47:22;;;;;;;;;;;6.20;99.90;;;;;;5115494;28;19954;-44
2022/04/04 10:49:47;;;;;;;;;;;6.30;99.90;;;;;;5115056;28;19971;-44
2022/04/04 10:52:13;;;;;;;;;;;6.30;99.90;;;;;;5097580;28;20346;-44
2022/04/04 10:54:38;;;;;;;;;;;6.30;99.90;;;;;;5095584;28;19912;-43
2022/04/04 10:57:14;;;;;;;;;;;6.40;99.90;;;;;;5092616;28;19908;-44
2022/04/04 10:59:40;;;;;;;;;;;6.40;99.90;;;;;;5093467;28;19916;-43
2022/04/04 11:02:06;;;;;;;;;;;6.40;99.90;;;;;;5092800;28;20264;-44
2022/04/04 11:07:38;;;;;;;;;;;6.50;99.90;;;;;;5091954;28;20270;-43
2022/04/04 11:07:38;;;;;;;;;;;6.50;99.90;;;;;;5092202;28;20790;-45
2022/04/04 11:10:08;;;;;;;;;;;6.60;99.90;;;;;;5093540;28;20371;-45
2022/04/04 11:12:52;;;;;;;;;;;6.60;99.90;;;;;;5093632;28;19908;-44
2022/04/04 11:15:17;;;;;;;;;;;6.60;99.90;;;;;;5094448;28;19986;-44
2022/04/04 11:17:57;;;;;;;;;;;6.70;99.90;;;;;;5094255;28;19912;-45
2022/04/04 11:20:31;;;;;;;;;;;6.70;99.90;;;;;;5094842;28;19954;-44
2022/04/04 11:23:11;;;;;;;;;;;6.70;99.90;;;;;;5094843;28;19908;-43
2022/04/04 11:25:48;;;;;;;;;;;6.80;99.90;;;;;;5093056;28;19980;-42
2022/04/04 11:28:15;;;;;;;;;;;6.80;99.90;;;;;;5106925;28;19930;-43
2022/04/04 11:30:40;;;;;;;;;;;6.90;99.90;;;;;;5115154;28;19920;-43
2022/04/04 11:33:28;;;;;;;;;;;6.90;99.90;;;;;;5094537;28;19915;-43
2022/04/04 11:35:54;;;;;;;;;;;6.90;99.90;;;;;;5094089;28;19920;-43
2022/04/04 11:38:20;;;;;;;;;;;7.00;99.90;;;;;;5093592;28;19923;-42
2022/04/04 11:40:55;;;;;;;;;;;7.00;99.90;;;;;;5093801;28;19908;-42
2022/04/04 11:43:32;;;;;;;;;;;7.00;99.90;;;;;;5097556;28;19996;-43
2022/04/04 11:45:59;;;;;;;;;;;7.00;99.90;;;;;;5113835;28;20350;-44
2022/04/04 11:48:25;;;;;;;;;;;7.10;99.90;;;;;;5093196;28;20064;-43
2022/04/04 11:50:57;;;;;;;;;;;7.10;99.90;;;;;;5093752;28;20363;-42
2022/04/04 11:53:25;;;;;;;;;;;7.20;99.90;;;;;;5090779;28;19915;-42
2022/04/04 11:55:52;;;;;;;;;;;7.20;99.90;;;;;;5092076;28;20000;-43
2022/04/04 11:58:20;;;;;;;;;;;7.30;99.90;;;;;;5092621;28;19919;-42
2022/04/04 12:00:55;;;;;;;;;;;7.30;99.90;;;;;;5093328;28;19953;-42
2022/04/04 12:03:22;;;;;;;;;;;7.30;99.90;;;;;;5093571;28;19912;-43
2022/04/04 12:06:06;;;;;;;;;;;7.40;99.90;;;;;;5093974;28;19958;-43
2022/04/04 12:08:33;;;;;;;;;;;7.40;99.90;;;;;;5093277;28;19916;-43
2022/04/04 12:10:58;;;;;;;;;;;7.50;99.90;;;;;;5093719;28;19912;-43
2022/04/04 12:13:24;;;;;;;;;;;7.40;99.90;;;;;;5093366;28;20283;-42
2022/04/04 12:15:51;;;;;;;;;;;7.40;99.90;;;;;;5092909;28;20274;-44
2022/04/04 12:18:29;;;;;;;;;;;7.40;99.90;;;;;;5093308;28;19923;-43
2022/04/04 12:21:02;;;;;;;;;;;7.40;99.90;;;;;;5092813;28;19974;-43
2022/04/04 12:26:13;;;;;;;;;;;7.50;99.90;;;;;;5106785;28;19935;-42
2022/04/04 12:28:48;;;;;;;;;;;7.60;99.90;;;;;;5092767;28;20043;-42
2022/04/04 12:31:15;;;;;;;;;;;7.60;99.90;;;;;;5093112;28;19916;-43
2022/04/04 12:33:41;;;;;;;;;;;7.60;99.90;;;;;;5093279;28;20451;-41
2022/04/04 12:36:06;;;;;;;;;;;7.60;99.90;;;;;;5091887;28;19919;-42
2022/04/04 12:38:34;;;;;;;;;;;7.60;99.90;;;;;;5093216;28;20252;-41
2022/04/04 12:41:08;;;;;;;;;;;7.60;99.90;;;;;;5093263;28;19986;-42
2022/04/04 12:43:33;;;;;;;;;;;7.60;99.90;;;;;;5092499;28;19908;-42
2022/04/04 12:45:59;;;;;;;;;;;7.70;99.90;;;;;;5093250;28;19995;-41
2022/04/04 12:48:35;;;;;;;;;;;7.70;99.90;;;;;;5092654;28;19956;-43
2022/04/04 12:51:01;;;;;;;;;;;7.70;99.90;;;;;;5091303;28;19913;-40
2022/04/04 12:53:27;;;;;;;;;;;7.70;99.90;;;;;;5111657;28;19922;-40
2022/04/04 12:56:03;;;;;;;;;;;7.70;99.90;;;;;;5108232;28;19908;-40
2022/04/04 12:58:29;;;;;;;;;;;7.70;99.90;;;;;;5091740;28;19908;-40
2022/04/04 13:00:55;;;;;;;;;;;7.80;99.90;;;;;;5092718;28;20023;-43
2022/04/04 13:03:27;;;;;;;;;;;7.70;99.90;;;;;;5089215;28;19951;-41
2022/04/04 13:05:54;;;;;;;;;;;7.80;99.90;;;;;;5090996;28;19908;-41
2022/04/04 13:08:21;;;;;;;;;;;7.80;99.90;;;;;;5090538;28;19946;-42
2022/04/04 13:11:06;;;;;;;;;;;7.80;99.90;;;;;;5092425;28;19947;-44
2022/04/04 13:13:32;;;;;;;;;;;7.90;99.90;;;;;;5090866;28;20366;-42
2022/04/04 13:15:57;;;;;;;;;;;7.90;99.90;;;;;;5090878;28;19908;-44
2022/04/04 13:18:24;;;;;;;;;;;8.00;99.90;;;;;;5089812;28;20371;-42
2022/04/04 13:20:49;;;;;;;;;;;8.00;99.90;;;;;;5091790;28;20359;-42
2022/04/04 13:23:15;;;;;;;;;;;8.00;99.90;;;;;;5090373;28;19908;-41
2022/04/04 13:25:40;;;;;;;;;;;8.10;99.90;;;;;;5090189;28;19912;-42
2022/04/04 13:28:10;;;;;;;;;;;8.10;99.90;;;;;;5091331;28;19963;-42
2022/04/04 13:30:36;;;;;;;;;;;8.10;99.90;;;;;;5090491;28;19999;-42
2022/04/04 13:33:02;;;;;;;;;;;8.10;99.90;;;;;;5090230;28;20003;-45
2022/04/04 13:35:27;;;;;;;;;;;8.10;99.90;;;;;;5090700;28;20394;-42
2022/04/04 13:37:53;;;;;;;;;;;8.10;99.90;;;;;;5090788;28;19919;-43
2022/04/04 13:40:18;;;;;;;;;;;8.20;99.90;;;;;;5089676;28;19912;-42
2022/04/04 13:42:43;;;;;;;;;;;8.30;99.90;;;;;;5090662;28;19915;-42
2022/04/04 13:45:09;;;;;;;;;;;8.30;99.90;;;;;;5090326;28;19912;-43
2022/04/04 13:47:35;;;;;;;;;;;8.40;99.90;;;;;;5069800;28;19908;-44
2022/04/04 13:50:00;;;;;;;;;;;8.40;99.90;;;;;;5101750;28;19968;-43
2022/04/04 13:52:26;;;;;;;;;;;8.50;99.90;;;;;;5107055;28;19999;-41
2022/04/04 13:54:52;;;;;;;;;;;8.50;99.90;;;;;;5092169;28;19909;-45
2022/04/04 13:57:17;;;;;;;;;;;8.50;99.90;;;;;;5091720;28;19912;-43
2022/04/04 13:59:42;;;;;;;;;;;8.50;99.90;;;;;;5091344;28;19916;-41
2022/04/04 14:02:09;;;;;;;;;;;8.60;99.90;;;;;;5091036;28;19912;-42
2022/04/04 14:04:35;;;;;;;;;;;8.60;99.90;;;;;;5106789;28;20415;-43
2022/04/04 14:07:04;;;;;;;;;;;8.60;99.90;;;;;;5099488;28;19912;-43
2022/04/04 14:09:30;;;;;;;;;;;8.70;99.90;;;;;;5092868;28;20027;-44
2022/04/04 14:11:56;;;;;;;;;;;8.70;99.90;;;;;;5112279;28;20002;-43
2022/04/04 14:14:22;;;;;;;;;;;8.70;99.90;;;;;;5110891;28;19908;-43
2022/04/04 14:16:49;;;;;;;;;;;8.80;99.90;;;;;;5116026;28;19908;-42
2022/04/04 14:19:15;;;;;;;;;;;8.80;99.90;;;;;;5116180;28;19911;-43
2022/04/04 14:21:41;;;;;;;;;;;8.80;99.90;;;;;;5115710;28;20358;-43
2022/04/04 14:24:07;;;;;;;;;;;8.80;99.90;;;;;;5116069;28;19915;-44
2022/04/04 14:26:32;;;;;;;;;;;8.90;99.90;;;;;;5097896;28;19966;-45
2022/04/04 14:28:58;;;;;;;;;;;8.90;99.90;;;;;;5115249;28;19915;-43
2022/04/04 14:31:27;;;;;;;;;;;8.90;99.90;;;;;;5101060;28;19924;-43
2022/04/04 14:33:56;;;;;;;;;;;8.90;99.90;;;;;;5095343;28;19916;-44
2022/04/04 14:36:22;;;;;;;;;;;9.00;99.90;;;;;;5099023;28;19934;-44